createdAt,value
2024-03-03T00:02:36.777Z,9.77
2024-03-03T00:05:39.085Z,10.93
2024-03-03T00:08:41.381Z,9.15
2024-03-03T00:11:43.629Z,12.15
2024-03-03T00:14:45.823Z,8.83
2024-03-03T00:17:48.055Z,10.02
2024-03-03T00:20:50.389Z,9.98
2024-03-03T00:23:52.685Z,9.80
2024-03-03T00:26:54.972Z,10.95
2024-03-03T00:29:57.611Z,10.80
2024-03-03T00:32:59.865Z,8.73
2024-03-03T00:36:02.199Z,11.43
2024-03-03T00:39:05.451Z,10.10
2024-03-03T00:42:07.670Z,10.18
2024-03-03T00:45:09.943Z,8.50
2024-03-03T00:48:12.271Z,11.00
2024-03-03T00:51:14.516Z,9.27
2024-03-03T00:54:16.740Z,8.10
2024-03-03T00:57:19.661Z,12.27
2024-03-03T01:00:22.225Z,8.97
2024-03-03T01:03:25.116Z,9.25
2024-03-03T01:06:27.411Z,10.10
2024-03-03T01:09:30.447Z,9.57
2024-03-03T01:12:32.900Z,11.65
2024-03-03T01:15:35.140Z,10.83
2024-03-03T01:18:37.419Z,7.75
2024-03-03T01:21:40.925Z,10.43
2024-03-03T01:24:43.278Z,8.63
2024-03-03T01:27:45.674Z,13.65
2024-03-03T01:30:47.951Z,11.10
2024-03-03T01:33:50.294Z,8.02
2024-03-03T01:36:53.598Z,7.15
2024-03-03T01:39:55.929Z,8.57
2024-03-03T01:42:58.380Z,11.10
2024-03-03T01:46:00.803Z,10.03
2024-03-03T01:49:03.291Z,8.60
2024-03-03T01:52:06.379Z,13.45
2024-03-03T01:55:09.441Z,9.10
2024-03-03T01:58:12.395Z,11.75
2024-03-03T02:01:16.004Z,10.03
2024-03-03T02:04:18.444Z,11.77
2024-03-03T02:07:21.991Z,12.95
2024-03-03T02:10:25.030Z,10.13
2024-03-03T02:13:27.494Z,8.93
2024-03-03T02:16:29.859Z,9.03
2024-03-03T02:19:35.853Z,9.68
2024-03-03T02:22:38.367Z,9.23
2024-03-03T02:25:41.216Z,10.80
2024-03-03T02:28:43.782Z,12.10
2024-03-03T02:31:45.983Z,11.50
2024-03-03T02:34:48.228Z,11.15
2024-03-03T02:37:50.501Z,10.23
2024-03-03T02:40:52.763Z,11.45
2024-03-03T02:43:55.168Z,9.55
2024-03-03T02:46:57.402Z,15.27
2024-03-03T02:49:59.662Z,12.07
2024-03-03T02:53:02.279Z,15.32
2024-03-03T02:56:06.225Z,10.88
2024-03-03T02:59:08.512Z,13.48
2024-03-03T03:02:10.824Z,11.20
2024-03-03T03:05:13.130Z,13.75
2024-03-03T03:08:15.411Z,12.55
2024-03-03T03:11:17.657Z,11.18
2024-03-03T03:14:20.111Z,12.20
2024-03-03T03:17:24.536Z,9.20
2024-03-03T03:20:26.893Z,8.55
2024-03-03T03:23:29.176Z,10.60
2024-03-03T03:26:31.404Z,13.88
2024-03-03T03:29:33.667Z,11.80
2024-03-03T03:32:35.897Z,12.93
2024-03-03T03:35:38.311Z,15.32
2024-03-03T03:38:40.529Z,15.80
2024-03-03T03:41:50.231Z,13.73
2024-03-03T03:44:52.506Z,11.25
2024-03-03T03:47:55.466Z,12.23
2024-03-03T03:50:57.725Z,12.27
2024-03-03T03:53:59.901Z,12.63
2024-03-03T03:57:02.137Z,15.00
2024-03-03T04:00:06.468Z,12.52
2024-03-03T04:03:14.995Z,10.60
2024-03-03T04:06:17.207Z,16.58
2024-03-03T04:09:19.401Z,10.75
2024-03-03T04:12:21.582Z,12.32
2024-03-03T04:15:23.994Z,13.23
2024-03-03T04:18:29.124Z,17.07
2024-03-03T04:21:32.949Z,13.80
2024-03-03T04:24:35.353Z,15.13
2024-03-03T04:27:39.734Z,15.07
2024-03-03T04:30:42.085Z,15.20
2024-03-03T04:33:44.408Z,14.93
2024-03-03T04:36:47.065Z,15.15
2024-03-03T04:39:49.372Z,12.45
2024-03-03T04:42:51.988Z,14.45
2024-03-03T04:45:56.609Z,18.33
2024-03-03T04:49:00.473Z,14.50
2024-03-03T04:52:02.902Z,18.65
2024-03-03T04:55:06.973Z,16.23
2024-03-03T04:58:09.242Z,14.60
2024-03-03T05:01:11.962Z,13.25
2024-03-03T05:04:15.005Z,13.20
2024-03-03T05:07:17.861Z,15.30
2024-03-03T05:10:20.127Z,13.75
2024-03-03T05:13:22.465Z,13.48
2024-03-03T05:16:24.812Z,12.20
2024-03-03T05:19:27.072Z,14.47
2024-03-03T05:22:29.531Z,12.95
2024-03-03T05:25:31.741Z,12.30
2024-03-03T05:28:34.101Z,17.13
2024-03-03T05:31:41.802Z,14.40
2024-03-03T05:34:44.005Z,13.70
2024-03-03T05:37:46.210Z,12.35
2024-03-03T05:40:48.482Z,10.02
2024-03-03T05:43:50.662Z,12.00
2024-03-03T05:46:52.906Z,12.98
2024-03-03T05:49:55.243Z,9.90
2024-03-03T05:52:57.467Z,10.90
2024-03-03T05:55:59.648Z,13.70
2024-03-03T05:59:01.861Z,13.75
2024-03-03T06:02:04.247Z,11.10
2024-03-03T06:05:09.686Z,10.00
2024-03-03T06:08:11.987Z,11.60
2024-03-03T06:11:16.629Z,9.27
2024-03-03T06:14:18.976Z,11.45
2024-03-03T06:17:21.220Z,11.43
2024-03-03T06:20:23.524Z,15.37
2024-03-03T06:23:26.589Z,12.88
2024-03-03T06:26:33.822Z,11.60
2024-03-03T06:29:36.740Z,13.55
2024-03-03T06:32:39.020Z,10.25
2024-03-03T06:38:44.774Z,13.27
2024-03-03T06:41:47.020Z,11.20
2024-03-03T06:44:49.419Z,13.57
2024-03-03T06:47:51.643Z,14.32
2024-03-03T06:50:53.860Z,10.03
2024-03-03T06:53:56.169Z,10.20
2024-03-03T06:56:58.482Z,14.80
2024-03-03T07:00:04.666Z,13.18
2024-03-03T07:03:09.872Z,11.13
2024-03-03T07:06:12.109Z,11.93
2024-03-03T07:09:14.337Z,17.42
2024-03-03T07:12:16.616Z,15.60
2024-03-03T07:15:18.909Z,14.65
2024-03-03T07:18:21.122Z,12.25
2024-03-03T07:21:23.341Z,12.73
2024-03-03T07:24:25.632Z,13.48
2024-03-03T07:27:27.834Z,12.77
2024-03-03T07:30:30.070Z,11.07
2024-03-03T07:33:32.833Z,12.20
2024-03-03T07:36:35.041Z,13.37
2024-03-03T07:39:37.290Z,14.40
2024-03-03T07:42:39.547Z,12.23
2024-03-03T07:45:41.973Z,11.45
2024-03-03T07:48:46.156Z,10.57
2024-03-03T07:51:48.602Z,11.90
2024-03-03T07:54:50.915Z,10.48
2024-03-03T07:57:53.243Z,13.23
2024-03-03T08:00:55.647Z,13.15
2024-03-03T08:03:57.951Z,14.45
2024-03-03T08:07:00.290Z,12.97
2024-03-03T08:10:02.764Z,13.10
2024-03-03T08:13:05.299Z,14.10
2024-03-03T08:16:08.213Z,10.77
2024-03-03T08:19:10.517Z,7.97
2024-03-03T08:22:12.909Z,14.87
2024-03-03T08:25:19.618Z,16.70
2024-03-03T08:28:21.941Z,14.45
2024-03-03T08:31:24.209Z,12.75
2024-03-03T08:34:26.517Z,11.35
2024-03-03T08:37:28.825Z,12.37
2024-03-03T08:40:31.147Z,12.43
2024-03-03T08:43:33.465Z,10.82
2024-03-03T08:46:35.780Z,14.65
2024-03-03T08:49:38.033Z,11.52
2024-03-03T08:52:43.226Z,10.57
2024-03-03T08:55:46.698Z,13.68
2024-03-03T08:58:49.006Z,15.05
2024-03-03T09:01:51.437Z,10.73
2024-03-03T09:04:54.146Z,14.55
2024-03-03T09:07:56.410Z,15.90
2024-03-03T09:11:02.708Z,14.00
2024-03-03T09:14:05.539Z,14.43
2024-03-03T09:17:07.814Z,15.38
2024-03-03T09:20:11.084Z,12.38
2024-03-03T09:23:13.327Z,15.27
2024-03-03T09:26:15.908Z,10.25
2024-03-03T09:29:19.269Z,14.90
2024-03-03T09:32:22.727Z,13.70
2024-03-03T09:35:24.966Z,13.07
2024-03-03T09:38:27.216Z,12.77
2024-03-03T09:41:29.795Z,15.57
2024-03-03T09:44:37.068Z,13.15
2024-03-03T09:47:40.628Z,14.60
2024-03-03T09:50:43.751Z,17.63
2024-03-03T09:53:46.076Z,17.63
2024-03-03T09:56:49.227Z,15.27
2024-03-03T09:59:54.770Z,13.25
2024-03-03T10:02:57.717Z,16.15
2024-03-03T10:06:05.104Z,7.13
2024-03-03T10:09:10.448Z,20.43
2024-03-03T10:12:13.450Z,16.48
2024-03-03T10:15:16.152Z,15.82
2024-03-03T10:18:21.543Z,19.85
2024-03-03T10:21:24.348Z,16.77
2024-03-03T10:24:27.511Z,17.83
2024-03-03T10:27:29.792Z,15.60
2024-03-03T10:30:34.348Z,18.40
2024-03-03T10:33:36.566Z,15.57
2024-03-03T10:36:38.992Z,18.20
2024-03-03T10:39:41.432Z,22.57
2024-03-03T10:42:43.839Z,19.85
2024-03-03T10:45:46.228Z,18.55
2024-03-03T10:48:48.818Z,16.70
2024-03-03T10:51:51.735Z,19.95
2024-03-03T10:54:54.519Z,20.97
2024-03-03T10:57:57.078Z,17.13
2024-03-03T11:00:59.908Z,16.05
2024-03-03T11:04:05.563Z,18.83
2024-03-03T11:07:07.899Z,17.00
2024-03-03T11:10:10.615Z,13.53
2024-03-03T11:13:14.098Z,19.58
2024-03-03T11:16:16.684Z,16.30
2024-03-03T11:19:27.792Z,14.13
2024-03-03T11:22:35.662Z,18.33
2024-03-03T11:25:43.945Z,17.93
2024-03-03T11:28:49.806Z,12.88
2024-03-03T11:31:52.615Z,15.40
2024-03-03T11:34:56.203Z,14.43
2024-03-03T11:37:58.497Z,17.70
2024-03-03T11:41:00.757Z,16.27
2024-03-03T11:44:03.838Z,18.33
2024-03-03T11:47:06.632Z,14.85
2024-03-03T11:50:19.637Z,17.55
2024-03-03T11:53:23.126Z,15.40
2024-03-03T11:56:28.341Z,17.63
2024-03-03T11:59:44.541Z,14.88
2024-03-03T12:02:47.148Z,13.90
2024-03-03T12:05:51.217Z,13.27
2024-03-03T12:08:59.591Z,16.95
2024-03-03T12:12:01.873Z,18.03
2024-03-03T12:15:04.377Z,13.43
2024-03-03T12:18:12.666Z,13.75
2024-03-03T12:21:15.334Z,11.93
2024-03-03T12:24:17.583Z,15.23
2024-03-03T12:27:19.852Z,15.80
2024-03-03T12:30:23.686Z,14.80
2024-03-03T12:33:25.970Z,15.27
2024-03-03T12:36:28.374Z,10.85
2024-03-03T12:39:31.295Z,9.73
2024-03-03T12:42:33.533Z,12.30
2024-03-03T12:45:36.393Z,11.75
2024-03-03T12:48:39.057Z,9.82
2024-03-03T12:51:41.445Z,9.52
2024-03-03T12:54:43.847Z,9.57
2024-03-03T12:57:46.236Z,7.73
2024-03-03T13:00:49.856Z,11.45
2024-03-03T13:03:54.290Z,7.90
2024-03-03T13:07:00.606Z,12.07
2024-03-03T13:10:22.277Z,11.00
2024-03-03T13:13:24.717Z,12.00
2024-03-03T13:16:27.258Z,11.23
2024-03-03T13:19:45.745Z,10.75
2024-03-03T13:22:48.077Z,11.52
2024-03-03T13:25:52.261Z,9.07
2024-03-03T13:28:54.735Z,10.00
2024-03-03T13:31:57.037Z,8.35
2024-03-03T13:34:59.275Z,9.88
2024-03-03T13:38:01.573Z,10.18
2024-03-03T13:41:04.087Z,9.75
2024-03-03T13:44:06.600Z,8.83
2024-03-03T13:47:10.209Z,11.32
2024-03-03T13:50:12.457Z,12.07
2024-03-03T13:53:17.243Z,8.55
2024-03-03T13:56:19.680Z,7.38
2024-03-03T13:59:21.980Z,9.20
2024-03-03T14:02:24.200Z,9.75
2024-03-03T14:05:26.705Z,8.32
2024-03-03T14:08:29.083Z,6.97
2024-03-03T14:11:31.345Z,7.65
2024-03-03T14:14:33.542Z,8.43
2024-03-03T14:17:36.077Z,8.32
2024-03-03T14:20:39.588Z,7.85
2024-03-03T14:23:41.945Z,8.95
2024-03-03T14:26:44.104Z,9.20
2024-03-03T14:29:46.435Z,9.30
2024-03-03T14:32:48.732Z,9.85
2024-03-03T14:35:52.216Z,6.57
2024-03-03T14:38:54.910Z,7.20
2024-03-03T14:41:57.104Z,10.23
2024-03-03T14:44:59.307Z,8.37
2024-03-03T14:48:01.551Z,9.05
2024-03-03T14:51:03.925Z,8.07
2024-03-03T14:54:06.184Z,8.30
2024-03-03T14:57:08.498Z,9.90
2024-03-03T15:00:13.631Z,12.77
2024-03-03T15:03:16.020Z,7.82
2024-03-03T15:06:18.598Z,7.85
2024-03-03T15:09:20.780Z,7.97
2024-03-03T15:12:25.458Z,7.35
2024-03-03T15:15:27.670Z,11.17
2024-03-03T15:18:30.074Z,11.07
2024-03-03T15:21:32.240Z,9.13
2024-03-03T15:24:34.473Z,8.77
2024-03-03T15:27:36.784Z,8.70
2024-03-03T15:30:42.056Z,6.67
2024-03-03T15:33:44.318Z,9.30
2024-03-03T15:36:46.502Z,6.85
2024-03-03T15:39:48.955Z,11.20
2024-03-03T15:42:52.226Z,9.95
2024-03-03T15:45:54.549Z,9.37
2024-03-03T15:48:56.938Z,9.88
2024-03-03T15:52:00.002Z,14.40
2024-03-03T15:55:02.570Z,10.90
2024-03-03T15:58:05.576Z,10.68
2024-03-03T16:01:07.979Z,11.17
2024-03-03T16:04:10.573Z,10.75
2024-03-03T16:07:18.376Z,13.25
2024-03-03T16:10:20.805Z,12.57
2024-03-03T16:13:24.320Z,13.05
2024-03-03T16:16:30.741Z,11.40
2024-03-03T16:19:33.263Z,13.55
2024-03-03T16:22:36.281Z,12.50
2024-03-03T16:25:38.670Z,15.77
2024-03-03T16:28:40.984Z,12.45
2024-03-03T16:31:43.308Z,12.57
2024-03-03T16:34:45.760Z,13.52
2024-03-03T16:37:48.640Z,12.10
2024-03-03T16:40:51.073Z,17.42
2024-03-03T16:43:53.378Z,13.50
2024-03-03T16:46:56.073Z,13.63
2024-03-03T16:49:58.617Z,14.98
2024-03-03T16:53:01.084Z,11.88
2024-03-03T16:56:05.768Z,13.80
2024-03-03T16:59:08.286Z,13.52
2024-03-03T17:02:10.698Z,12.73
2024-03-03T17:05:15.129Z,13.98
2024-03-03T17:08:17.619Z,13.15
2024-03-03T17:11:20.208Z,12.90
2024-03-03T17:14:22.541Z,11.38
2024-03-03T17:17:25.151Z,13.63
2024-03-03T17:20:27.620Z,13.57
2024-03-03T17:23:30.158Z,13.07
2024-03-03T17:26:33.584Z,14.25
2024-03-03T17:29:36.716Z,11.82
2024-03-03T17:32:39.075Z,17.03
2024-03-03T17:35:41.617Z,12.02
2024-03-03T17:38:43.902Z,12.10
2024-03-03T17:41:46.798Z,14.23
2024-03-03T17:44:49.197Z,11.55
2024-03-03T17:47:52.200Z,15.57
2024-03-03T17:50:54.906Z,14.98
2024-03-03T17:53:58.790Z,14.70
2024-03-03T17:57:01.058Z,14.45
2024-03-03T18:00:04.506Z,13.43
2024-03-03T18:03:14.766Z,11.60
2024-03-03T18:06:18.519Z,13.63
2024-03-03T18:09:20.788Z,13.98
2024-03-03T18:12:25.001Z,15.57
2024-03-03T18:15:29.062Z,14.55
2024-03-03T18:18:31.886Z,13.50
2024-03-03T18:21:34.174Z,14.63
2024-03-03T18:24:36.573Z,14.32
2024-03-03T18:27:39.472Z,14.55
2024-03-03T18:30:44.356Z,14.65
2024-03-03T18:33:46.860Z,15.53
2024-03-03T18:36:52.456Z,14.15
2024-03-03T18:39:57.069Z,13.68
2024-03-03T18:42:59.541Z,20.23
2024-03-03T18:46:01.793Z,14.75
2024-03-03T18:49:05.080Z,17.93
2024-03-03T18:52:07.667Z,13.88
2024-03-03T18:55:10.095Z,14.77
2024-03-03T18:58:12.639Z,12.55
2024-03-03T19:01:16.492Z,15.95
2024-03-03T19:04:19.161Z,12.73
2024-03-03T19:07:21.606Z,12.00
2024-03-03T19:10:24.863Z,13.88
2024-03-03T19:13:27.710Z,12.15
2024-03-03T19:16:31.633Z,11.82
2024-03-03T19:19:36.780Z,13.30
2024-03-03T19:22:40.581Z,13.45
2024-03-03T19:25:43.432Z,13.65
2024-03-03T19:28:45.635Z,14.00
2024-03-03T19:31:48.124Z,10.98
2024-03-03T19:34:50.514Z,13.57
2024-03-03T19:37:53.046Z,11.75
2024-03-03T19:40:55.919Z,11.13
2024-03-03T19:44:00.465Z,14.48
2024-03-03T19:47:03.288Z,10.43
2024-03-03T19:50:06.168Z,13.30
2024-03-03T19:53:10.219Z,12.52
2024-03-03T19:56:12.733Z,10.75
2024-03-03T19:59:16.008Z,11.40
2024-03-03T20:02:18.472Z,11.82
2024-03-03T20:05:21.279Z,12.50
2024-03-03T20:08:23.766Z,12.77
2024-03-03T20:11:26.319Z,13.43
2024-03-03T20:14:28.795Z,11.73
2024-03-03T20:17:31.234Z,11.60
2024-03-03T20:20:33.763Z,12.00
2024-03-03T20:23:36.821Z,8.88
2024-03-03T20:26:41.588Z,12.27
2024-03-03T20:29:44.138Z,9.55
2024-03-03T20:32:46.871Z,8.43
2024-03-03T20:35:50.307Z,13.27
2024-03-03T20:38:53.081Z,14.05
2024-03-03T20:41:55.430Z,11.32
2024-03-03T20:44:58.252Z,13.63
2024-03-03T20:48:00.611Z,11.80
2024-03-03T20:51:02.989Z,11.93
2024-03-03T20:54:06.366Z,11.80
2024-03-03T20:57:09.900Z,11.70
2024-03-03T21:00:12.675Z,12.25
2024-03-03T21:03:15.320Z,11.48
2024-03-03T21:06:18.774Z,12.80
2024-03-03T21:09:21.291Z,7.97
2024-03-03T21:12:24.098Z,9.77
2024-03-03T21:15:26.354Z,9.48
2024-03-03T21:18:31.200Z,10.38
2024-03-03T21:21:35.084Z,13.13
2024-03-03T21:24:40.888Z,11.80
2024-03-03T21:27:43.203Z,11.10
2024-03-03T21:30:45.589Z,10.50
2024-03-03T21:33:48.364Z,10.80
2024-03-03T21:36:50.683Z,9.07
2024-03-03T21:39:53.279Z,10.82
2024-03-03T21:42:56.623Z,11.07
2024-03-03T21:45:58.943Z,12.30
2024-03-03T21:49:01.232Z,11.43
2024-03-03T21:52:03.579Z,12.23
2024-03-03T21:55:05.945Z,11.65
2024-03-03T21:58:09.865Z,10.70
2024-03-03T22:01:12.196Z,12.20
2024-03-03T22:04:14.586Z,12.30
2024-03-03T22:07:17.055Z,11.87
2024-03-03T22:10:19.331Z,16.05
2024-03-03T22:13:21.667Z,12.85
2024-03-03T22:16:24.043Z,11.45
2024-03-03T22:19:27.563Z,12.23
2024-03-03T22:22:30.082Z,13.53
2024-03-03T22:25:32.426Z,11.80
2024-03-03T22:28:34.713Z,13.80
2024-03-03T22:31:39.982Z,14.07
2024-03-03T22:34:42.311Z,13.65
2024-03-03T22:37:44.622Z,13.57
2024-03-03T22:40:47.313Z,10.63
2024-03-03T22:43:49.508Z,8.98
2024-03-03T22:46:54.574Z,10.75
2024-03-03T22:50:00.082Z,11.40
2024-03-03T22:53:02.282Z,10.63
2024-03-03T22:56:05.315Z,13.65
2024-03-03T22:59:07.581Z,11.02
2024-03-03T23:02:09.937Z,13.23
2024-03-03T23:05:12.328Z,13.32
2024-03-03T23:08:14.691Z,15.07
2024-03-03T23:11:16.962Z,16.35
2024-03-03T23:14:19.258Z,11.68
2024-03-03T23:17:21.522Z,15.30
2024-03-03T23:20:23.766Z,13.50
2024-03-03T23:23:26.350Z,13.40
2024-03-03T23:26:29.211Z,13.68
2024-03-03T23:29:31.512Z,11.50
2024-03-03T23:32:33.738Z,13.85
2024-03-03T23:35:35.942Z,12.20
2024-03-03T23:38:38.327Z,14.10
2024-03-03T23:41:40.920Z,13.20
2024-03-03T23:44:43.186Z,14.38
2024-03-03T23:47:45.434Z,10.25
2024-03-03T23:50:47.652Z,15.32
2024-03-03T23:53:50.972Z,15.60
2024-03-03T23:56:53.511Z,9.52
2024-03-03T23:59:55.721Z,9.60
